sensor_id;sensor_type;location;lat;lon;timestamp;pressure;altitude;pressure_sealevel;temperature;humidity
31062;BME280;17724;53.546;9.974;2023-09-19T00:01:16;100293.13;;;18.28;100.00
31062;BME280;17724;53.546;9.974;2023-09-19T00:05:20;100295.75;;;18.25;100.00
31062;BME280;17724;53.546;9.974;2023-09-19T00:09:24;100295.41;;;18.26;100.00
31062;BME280;17724;53.546;9.974;2023-09-19T00:13:27;100296.09;;;18.32;100.00
31062;BME280;17724;53.546;9.974;2023-09-19T00:17:28;100302.97;;;18.34;100.00
31062;BME280;17724;53.546;9.974;2023-09-19T00:21:32;100302.84;;;18.39;100.00
31062;BME280;17724;53.546;9.974;2023-09-19T00:25:32;100295.94;;;18.37;100.00
31062;BME280;17724;53.546;9.974;2023-09-19T00:29:35;100300.88;;;18.40;100.00
31062;BME280;17724;53.546;9.974;2023-09-19T00:33:35;100312.22;;;18.52;100.00
31062;BME280;17724;53.546;9.974;2023-09-19T00:37:37;100311.38;;;18.52;100.00
31062;BME280;17724;53.546;9.974;2023-09-19T00:41:39;100308.94;;;18.59;100.00
31062;BME280;17724;53.546;9.974;2023-09-19T00:45:46;100306.00;;;18.55;100.00
31062;BME280;17724;53.546;9.974;2023-09-19T00:49:48;100303.84;;;18.52;100.00
31062;BME280;17724;53.546;9.974;2023-09-19T00:53:53;100307.63;;;18.48;100.00
31062;BME280;17724;53.546;9.974;2023-09-19T00:57:55;100303.84;;;18.43;100.00
31062;BME280;17724;53.546;9.974;2023-09-19T01:01:56;100324.78;;;18.41;100.00
31062;BME280;17724;53.546;9.974;2023-09-19T01:05:59;100311.69;;;18.50;100.00
31062;BME280;17724;53.546;9.974;2023-09-19T01:10:02;100320.06;;;18.59;100.00
31062;BME280;17724;53.546;9.974;2023-09-19T01:31:09;100329.22;;;18.51;100.00
31062;BME280;17724;53.546;9.974;2023-09-19T01:35:11;100333.16;;;18.58;99.38
31062;BME280;17724;53.546;9.974;2023-09-19T01:39:14;100343.22;;;18.68;98.60
31062;BME280;17724;53.546;9.974;2023-09-19T01:43:23;100350.03;;;18.53;98.84
31062;BME280;17724;53.546;9.974;2023-09-19T01:47:33;100352.38;;;18.60;98.10
31062;BME280;17724;53.546;9.974;2023-09-19T01:55:54;100370.25;;;18.67;92.29
31062;BME280;17724;53.546;9.974;2023-09-19T02:00:05;100367.13;;;18.69;91.64
31062;BME280;17724;53.546;9.974;2023-09-19T02:04:13;100368.59;;;18.66;92.13
31062;BME280;17724;53.546;9.974;2023-09-19T02:08:16;100370.88;;;18.64;92.56
31062;BME280;17724;53.546;9.974;2023-09-19T02:12:18;100370.72;;;18.69;93.60
31062;BME280;17724;53.546;9.974;2023-09-19T02:16:18;100374.09;;;18.49;95.13
31062;BME280;17724;53.546;9.974;2023-09-19T02:20:20;100372.06;;;18.32;96.91
31062;BME280;17724;53.546;9.974;2023-09-19T02:24:21;100393.06;;;18.47;97.31
31062;BME280;17724;53.546;9.974;2023-09-19T02:28:22;100383.22;;;18.32;97.52
31062;BME280;17724;53.546;9.974;2023-09-19T02:32:23;100386.38;;;18.39;98.63
31062;BME280;17724;53.546;9.974;2023-09-19T02:36:23;100382.41;;;18.32;98.89
31062;BME280;17724;53.546;9.974;2023-09-19T02:40:24;100371.16;;;18.14;99.32
31062;BME280;17724;53.546;9.974;2023-09-19T02:44:26;100395.19;;;18.10;99.43
31062;BME280;17724;53.546;9.974;2023-09-19T02:48:27;100389.16;;;18.08;100.00
31062;BME280;17724;53.546;9.974;2023-09-19T02:52:29;100379.69;;;18.18;99.11
31062;BME280;17724;53.546;9.974;2023-09-19T02:56:30;100393.22;;;18.11;98.16
31062;BME280;17724;53.546;9.974;2023-09-19T03:00:32;100381.50;;;18.22;97.96
31062;BME280;17724;53.546;9.974;2023-09-19T03:04:34;100386.25;;;18.22;97.82
31062;BME280;17724;53.546;9.974;2023-09-19T03:08:35;100397.44;;;18.31;96.38
31062;BME280;17724;53.546;9.974;2023-09-19T03:12:37;100400.69;;;18.24;96.69
31062;BME280;17724;53.546;9.974;2023-09-19T03:16:38;100409.63;;;18.12;96.58
31062;BME280;17724;53.546;9.974;2023-09-19T03:20:39;100401.81;;;18.23;96.16
31062;BME280;17724;53.546;9.974;2023-09-19T03:24:39;100399.13;;;18.09;95.34
31062;BME280;17724;53.546;9.974;2023-09-19T03:28:40;100419.56;;;18.05;95.90
31062;BME280;17724;53.546;9.974;2023-09-19T03:32:46;100412.53;;;18.07;95.09
31062;BME280;17724;53.546;9.974;2023-09-19T03:36:47;100413.00;;;18.01;95.69
31062;BME280;17724;53.546;9.974;2023-09-19T03:40:48;100412.22;;;18.09;94.66
31062;BME280;17724;53.546;9.974;2023-09-19T03:44:49;100429.88;;;18.04;94.34
31062;BME280;17724;53.546;9.974;2023-09-19T03:48:50;100433.63;;;18.00;92.67
31062;BME280;17724;53.546;9.974;2023-09-19T03:52:56;100430.25;;;17.89;91.46
31062;BME280;17724;53.546;9.974;2023-09-19T03:56:56;100436.06;;;18.01;89.32
31062;BME280;17724;53.546;9.974;2023-09-19T04:00:57;100443.63;;;17.64;88.33
31062;BME280;17724;53.546;9.974;2023-09-19T04:04:59;100456.78;;;17.72;88.59
31062;BME280;17724;53.546;9.974;2023-09-19T04:08:59;100449.88;;;17.70;88.37
31062;BME280;17724;53.546;9.974;2023-09-19T04:12:59;100467.84;;;17.50;86.08
31062;BME280;17724;53.546;9.974;2023-09-19T04:17:00;100471.97;;;17.53;86.15
31062;BME280;17724;53.546;9.974;2023-09-19T04:21:01;100473.88;;;17.43;85.32
31062;BME280;17724;53.546;9.974;2023-09-19T04:25:03;100473.94;;;17.52;85.35
31062;BME280;17724;53.546;9.974;2023-09-19T04:29:04;100504.81;;;17.51;85.89
31062;BME280;17724;53.546;9.974;2023-09-19T04:33:06;100502.91;;;17.37;84.90
31062;BME280;17724;53.546;9.974;2023-09-19T04:37:07;100516.09;;;17.32;85.05
31062;BME280;17724;53.546;9.974;2023-09-19T04:41:07;100500.03;;;17.29;85.68
31062;BME280;17724;53.546;9.974;2023-09-19T04:45:09;100525.16;;;17.10;86.89
31062;BME280;17724;53.546;9.974;2023-09-19T04:49:10;100524.44;;;17.04;85.68
31062;BME280;17724;53.546;9.974;2023-09-19T04:53:11;100521.97;;;17.16;85.48
31062;BME280;17724;53.546;9.974;2023-09-19T04:57:12;100526.38;;;17.17;85.60
31062;BME280;17724;53.546;9.974;2023-09-19T05:01:13;100519.06;;;16.94;85.27
31062;BME280;17724;53.546;9.974;2023-09-19T05:05:15;100527.41;;;16.94;85.51
31062;BME280;17724;53.546;9.974;2023-09-19T05:09:17;100525.03;;;16.87;86.31
31062;BME280;17724;53.546;9.974;2023-09-19T05:13:20;100528.25;;;17.08;86.54
31062;BME280;17724;53.546;9.974;2023-09-19T05:17:20;100535.63;;;16.85;87.28
31062;BME280;17724;53.546;9.974;2023-09-19T05:21:21;100533.34;;;16.87;87.48
31062;BME280;17724;53.546;9.974;2023-09-19T05:25:22;100545.09;;;16.84;86.74
31062;BME280;17724;53.546;9.974;2023-09-19T05:29:23;100551.97;;;16.87;87.97
31062;BME280;17724;53.546;9.974;2023-09-19T05:33:23;100552.63;;;16.97;86.94
31062;BME280;17724;53.546;9.974;2023-09-19T05:37:24;100549.53;;;16.85;87.49
31062;BME280;17724;53.546;9.974;2023-09-19T05:41:26;100546.41;;;16.87;86.88
31062;BME280;17724;53.546;9.974;2023-09-19T05:45:26;100530.56;;;16.73;86.95
31062;BME280;17724;53.546;9.974;2023-09-19T05:49:27;100563.44;;;16.66;87.57
31062;BME280;17724;53.546;9.974;2023-09-19T05:53:28;100566.53;;;16.65;87.52
31062;BME280;17724;53.546;9.974;2023-09-19T05:57:28;100567.44;;;16.60;87.96
31062;BME280;17724;53.546;9.974;2023-09-19T06:01:30;100564.41;;;16.75;87.70
31062;BME280;17724;53.546;9.974;2023-09-19T06:05:32;100548.84;;;16.61;89.01
31062;BME280;17724;53.546;9.974;2023-09-19T06:09:33;100556.94;;;16.90;88.41
31062;BME280;17724;53.546;9.974;2023-09-19T06:13:34;100552.09;;;16.63;88.45
31062;BME280;17724;53.546;9.974;2023-09-19T06:17:34;100565.00;;;16.72;88.19
31062;BME280;17724;53.546;9.974;2023-09-19T06:21:37;100576.56;;;16.80;88.88
31062;BME280;17724;53.546;9.974;2023-09-19T06:25:39;100562.38;;;16.81;88.10
31062;BME280;17724;53.546;9.974;2023-09-19T06:29:39;100586.69;;;17.17;86.99
31062;BME280;17724;53.546;9.974;2023-09-19T06:33:40;100579.47;;;17.02;86.39
31062;BME280;17724;53.546;9.974;2023-09-19T06:37:41;100575.38;;;16.99;86.29
31062;BME280;17724;53.546;9.974;2023-09-19T06:41:42;100574.84;;;16.97;86.54
31062;BME280;17724;53.546;9.974;2023-09-19T06:45:45;100587.53;;;17.04;86.69
31062;BME280;17724;53.546;9.974;2023-09-19T06:49:46;100586.69;;;17.31;87.07
31062;BME280;17724;53.546;9.974;2023-09-19T06:53:46;100595.03;;;17.17;85.99
31062;BME280;17724;53.546;9.974;2023-09-19T06:57:47;100576.31;;;17.09;85.82
31062;BME280;17724;53.546;9.974;2023-09-19T07:01:48;100584.00;;;17.39;86.03
31062;BME280;17724;53.546;9.974;2023-09-19T07:05:51;100607.38;;;17.38;85.43
31062;BME280;17724;53.546;9.974;2023-09-19T07:09:51;100614.78;;;17.70;85.07
31062;BME280;17724;53.546;9.974;2023-09-19T07:13:54;100624.88;;;17.66;84.63
31062;BME280;17724;53.546;9.974;2023-09-19T07:17:55;100614.69;;;17.34;84.82
31062;BME280;17724;53.546;9.974;2023-09-19T07:21:56;100636.53;;;17.41;84.44
31062;BME280;17724;53.546;9.974;2023-09-19T07:25:58;100632.91;;;17.54;85.14
31062;BME280;17724;53.546;9.974;2023-09-19T07:29:59;100633.53;;;17.37;84.35
31062;BME280;17724;53.546;9.974;2023-09-19T07:33:59;100625.41;;;17.55;84.80
31062;BME280;17724;53.546;9.974;2023-09-19T07:38:00;100641.34;;;17.63;84.14
31062;BME280;17724;53.546;9.974;2023-09-19T07:42:04;100648.78;;;17.54;83.45
31062;BME280;17724;53.546;9.974;2023-09-19T07:46:05;100660.09;;;17.71;83.46
31062;BME280;17724;53.546;9.974;2023-09-19T07:50:07;100651.16;;;17.74;82.68
31062;BME280;17724;53.546;9.974;2023-09-19T07:54:07;100654.34;;;17.67;82.89
31062;BME280;17724;53.546;9.974;2023-09-19T07:58:08;100653.63;;;17.62;85.25
31062;BME280;17724;53.546;9.974;2023-09-19T08:02:09;100633.00;;;17.35;85.62
31062;BME280;17724;53.546;9.974;2023-09-19T08:06:15;100665.16;;;17.41;85.01
31062;BME280;17724;53.546;9.974;2023-09-19T08:10:19;100653.00;;;17.37;86.74
31062;BME280;17724;53.546;9.974;2023-09-19T08:14:21;100653.00;;;17.51;84.88
31062;BME280;17724;53.546;9.974;2023-09-19T08:18:23;100660.94;;;17.58;84.17
31062;BME280;17724;53.546;9.974;2023-09-19T08:22:23;100647.53;;;17.46;82.93
31062;BME280;17724;53.546;9.974;2023-09-19T08:26:24;100669.38;;;17.66;82.07
31062;BME280;17724;53.546;9.974;2023-09-19T08:30:25;100660.63;;;17.45;82.05
31062;BME280;17724;53.546;9.974;2023-09-19T08:34:27;100667.75;;;17.65;81.52
31062;BME280;17724;53.546;9.974;2023-09-19T08:38:27;100678.25;;;17.82;81.68
31062;BME280;17724;53.546;9.974;2023-09-19T08:42:30;100671.28;;;17.85;81.10
31062;BME280;17724;53.546;9.974;2023-09-19T08:46:32;100676.31;;;17.83;80.58
31062;BME280;17724;53.546;9.974;2023-09-19T08:50:43;100667.22;;;17.49;80.05
31062;BME280;17724;53.546;9.974;2023-09-19T08:54:48;100670.31;;;17.62;81.44
31062;BME280;17724;53.546;9.974;2023-09-19T08:58:55;100677.75;;;17.80;82.02
31062;BME280;17724;53.546;9.974;2023-09-19T09:02:59;100676.31;;;17.83;79.96
31062;BME280;17724;53.546;9.974;2023-09-19T09:07:02;100689.09;;;17.84;81.14
31062;BME280;17724;53.546;9.974;2023-09-19T09:11:04;100672.78;;;17.91;79.39
31062;BME280;17724;53.546;9.974;2023-09-19T09:15:08;100690.31;;;18.05;78.88
31062;BME280;17724;53.546;9.974;2023-09-19T09:19:11;100709.63;;;18.38;77.47
31062;BME280;17724;53.546;9.974;2023-09-19T09:23:14;100698.34;;;18.57;76.77
31062;BME280;17724;53.546;9.974;2023-09-19T09:27:14;100696.03;;;18.59;75.78
31062;BME280;17724;53.546;9.974;2023-09-19T09:31:25;100692.91;;;18.52;74.62
31062;BME280;17724;53.546;9.974;2023-09-19T09:35:25;100694.09;;;18.59;73.10
31062;BME280;17724;53.546;9.974;2023-09-19T09:39:30;100697.75;;;18.82;72.38
31062;BME280;17724;53.546;9.974;2023-09-19T09:43:34;100701.50;;;19.00;71.96
31062;BME280;17724;53.546;9.974;2023-09-19T09:47:43;100698.59;;;18.69;72.43
31062;BME280;17724;53.546;9.974;2023-09-19T09:51:59;100695.72;;;18.74;69.67
31062;BME280;17724;53.546;9.974;2023-09-19T09:56:10;100686.50;;;19.18;69.38
31062;BME280;17724;53.546;9.974;2023-09-19T10:00:12;100697.63;;;19.41;68.84
31062;BME280;17724;53.546;9.974;2023-09-19T10:04:27;100698.72;;;19.62;69.55
31062;BME280;17724;53.546;9.974;2023-09-19T10:08:36;100696.31;;;19.69;65.51
31062;BME280;17724;53.546;9.974;2023-09-19T10:12:40;100680.28;;;19.53;66.32
31062;BME280;17724;53.546;9.974;2023-09-19T10:16:46;100695.34;;;19.74;62.11
31062;BME280;17724;53.546;9.974;2023-09-19T10:20:48;100693.84;;;19.68;61.64
31062;BME280;17724;53.546;9.974;2023-09-19T10:24:53;100694.25;;;19.53;60.83
31062;BME280;17724;53.546;9.974;2023-09-19T10:28:54;100691.31;;;19.58;61.45
31062;BME280;17724;53.546;9.974;2023-09-19T10:33:03;100679.94;;;19.77;62.17
31062;BME280;17724;53.546;9.974;2023-09-19T10:37:06;100690.91;;;19.73;62.57
31062;BME280;17724;53.546;9.974;2023-09-19T10:41:10;100673.06;;;19.52;61.20
31062;BME280;17724;53.546;9.974;2023-09-19T10:45:12;100692.03;;;19.63;60.76
31062;BME280;17724;53.546;9.974;2023-09-19T10:49:15;100690.47;;;19.57;59.30
31062;BME280;17724;53.546;9.974;2023-09-19T10:53:17;100696.84;;;19.80;62.56
31062;BME280;17724;53.546;9.974;2023-09-19T10:57:21;100673.81;;;19.75;62.51
31062;BME280;17724;53.546;9.974;2023-09-19T11:01:52;100698.47;;;19.73;63.04
31062;BME280;17724;53.546;9.974;2023-09-19T11:06:18;100681.47;;;19.60;61.43
31062;BME280;17724;53.546;9.974;2023-09-19T11:10:50;100692.25;;;19.84;62.04
31062;BME280;17724;53.546;9.974;2023-09-19T11:14:51;100694.25;;;19.92;61.64
31062;BME280;17724;53.546;9.974;2023-09-19T11:18:53;100694.84;;;19.72;59.30
31062;BME280;17724;53.546;9.974;2023-09-19T11:27:17;100678.47;;;19.79;58.94
31062;BME280;17724;53.546;9.974;2023-09-19T11:31:55;100686.25;;;20.17;59.27
31062;BME280;17724;53.546;9.974;2023-09-19T11:40:24;100678.50;;;19.97;57.03
31062;BME280;17724;53.546;9.974;2023-09-19T11:44:33;100673.91;;;19.92;56.60
31062;BME280;17724;53.546;9.974;2023-09-19T11:48:39;100681.44;;;19.52;57.66
31062;BME280;17724;53.546;9.974;2023-09-19T11:52:41;100679.56;;;19.69;58.62
31062;BME280;17724;53.546;9.974;2023-09-19T11:56:43;100673.53;;;19.76;58.31
31062;BME280;17724;53.546;9.974;2023-09-19T12:00:45;100663.66;;;19.79;59.12
31062;BME280;17724;53.546;9.974;2023-09-19T12:04:45;100668.22;;;19.66;58.46
31062;BME280;17724;53.546;9.974;2023-09-19T12:08:48;100670.94;;;19.88;58.94
31062;BME280;17724;53.546;9.974;2023-09-19T12:12:50;100680.91;;;19.81;58.42
31062;BME280;17724;53.546;9.974;2023-09-19T12:16:56;100658.41;;;19.68;57.88
31062;BME280;17724;53.546;9.974;2023-09-19T12:20:57;100667.50;;;19.91;58.20
31062;BME280;17724;53.546;9.974;2023-09-19T12:25:06;100670.47;;;19.95;57.84
31062;BME280;17724;53.546;9.974;2023-09-19T12:29:14;100668.13;;;19.80;58.19
31062;BME280;17724;53.546;9.974;2023-09-19T12:33:17;100672.75;;;19.93;59.65
31062;BME280;17724;53.546;9.974;2023-09-19T12:37:19;100668.69;;;20.08;57.96
31062;BME280;17724;53.546;9.974;2023-09-19T12:41:23;100652.75;;;20.08;56.98
31062;BME280;17724;53.546;9.974;2023-09-19T12:45:24;100661.94;;;20.09;55.26
31062;BME280;17724;53.546;9.974;2023-09-19T12:49:24;100653.56;;;20.00;55.18
31062;BME280;17724;53.546;9.974;2023-09-19T12:53:26;100647.16;;;20.00;55.17
31062;BME280;17724;53.546;9.974;2023-09-19T12:57:29;100644.38;;;20.00;55.52
31062;BME280;17724;53.546;9.974;2023-09-19T13:01:32;100655.53;;;20.00;54.54
31062;BME280;17724;53.546;9.974;2023-09-19T13:05:56;100664.63;;;20.40;55.53
31062;BME280;17724;53.546;9.974;2023-09-19T13:10:04;100648.00;;;20.26;54.62
31062;BME280;17724;53.546;9.974;2023-09-19T13:14:22;100637.69;;;20.53;54.76
31062;BME280;17724;53.546;9.974;2023-09-19T13:18:24;100648.66;;;20.40;54.33
31062;BME280;17724;53.546;9.974;2023-09-19T13:22:44;100632.75;;;20.58;53.52
31062;BME280;17724;53.546;9.974;2023-09-19T13:26:49;100639.13;;;20.33;52.50
31062;BME280;17724;53.546;9.974;2023-09-19T13:30:49;100618.78;;;20.32;52.72
31062;BME280;17724;53.546;9.974;2023-09-19T13:34:50;100634.41;;;20.51;53.00
31062;BME280;17724;53.546;9.974;2023-09-19T13:38:51;100624.69;;;20.48;52.61
31062;BME280;17724;53.546;9.974;2023-09-19T13:42:53;100619.09;;;20.39;52.99
31062;BME280;17724;53.546;9.974;2023-09-19T13:46:54;100597.41;;;20.62;53.23
31062;BME280;17724;53.546;9.974;2023-09-19T13:50:57;100606.47;;;20.51;51.48
31062;BME280;17724;53.546;9.974;2023-09-19T13:54:58;100583.28;;;20.67;51.17
31062;BME280;17724;53.546;9.974;2023-09-19T13:58:59;100582.78;;;20.65;51.02
31062;BME280;17724;53.546;9.974;2023-09-19T14:03:00;100597.41;;;20.62;50.65
31062;BME280;17724;53.546;9.974;2023-09-19T14:07:02;100592.34;;;20.56;50.92
31062;BME280;17724;53.546;9.974;2023-09-19T14:11:09;100603.69;;;20.59;51.05
31062;BME280;17724;53.546;9.974;2023-09-19T14:15:10;100594.47;;;20.50;51.80
31062;BME280;17724;53.546;9.974;2023-09-19T14:19:11;100583.44;;;20.71;51.70
31062;BME280;17724;53.546;9.974;2023-09-19T14:23:11;100574.75;;;20.55;51.62
31062;BME280;17724;53.546;9.974;2023-09-19T14:27:12;100582.31;;;20.63;51.58
31062;BME280;17724;53.546;9.974;2023-09-19T14:31:12;100580.47;;;20.67;52.08
31062;BME280;17724;53.546;9.974;2023-09-19T14:35:13;100584.72;;;20.91;52.36
31062;BME280;17724;53.546;9.974;2023-09-19T14:39:14;100576.19;;;20.70;52.55
31062;BME280;17724;53.546;9.974;2023-09-19T14:43:14;100565.13;;;20.82;53.17
31062;BME280;17724;53.546;9.974;2023-09-19T14:47:15;100571.44;;;20.71;53.57
31062;BME280;17724;53.546;9.974;2023-09-19T14:51:17;100564.06;;;20.57;54.23
31062;BME280;17724;53.546;9.974;2023-09-19T14:55:19;100570.75;;;20.74;53.96
31062;BME280;17724;53.546;9.974;2023-09-19T14:59:23;100564.38;;;20.64;55.10
31062;BME280;17724;53.546;9.974;2023-09-19T15:03:24;100580.00;;;20.57;55.51
31062;BME280;17724;53.546;9.974;2023-09-19T15:07:26;100568.81;;;20.48;56.04
31062;BME280;17724;53.546;9.974;2023-09-19T15:11:29;100563.25;;;20.57;56.66
31062;BME280;17724;53.546;9.974;2023-09-19T15:15:31;100553.22;;;20.56;56.71
31062;BME280;17724;53.546;9.974;2023-09-19T15:19:31;100579.31;;;20.42;57.21
31062;BME280;17724;53.546;9.974;2023-09-19T15:23:33;100565.84;;;20.45;57.77
31062;BME280;17724;53.546;9.974;2023-09-19T15:27:37;100567.03;;;20.35;57.89
31062;BME280;17724;53.546;9.974;2023-09-19T15:31:37;100544.34;;;20.45;59.75
31062;BME280;17724;53.546;9.974;2023-09-19T15:35:38;100551.09;;;20.53;59.51
31062;BME280;17724;53.546;9.974;2023-09-19T15:39:38;100543.16;;;20.46;59.16
31062;BME280;17724;53.546;9.974;2023-09-19T15:43:39;100531.69;;;20.48;58.28
31062;BME280;17724;53.546;9.974;2023-09-19T15:47:40;100524.97;;;20.40;58.82
31062;BME280;17724;53.546;9.974;2023-09-19T15:51:40;100539.75;;;20.32;59.45
31062;BME280;17724;53.546;9.974;2023-09-19T15:55:41;100546.16;;;20.41;58.68
31062;BME280;17724;53.546;9.974;2023-09-19T15:59:41;100544.84;;;20.30;59.64
31062;BME280;17724;53.546;9.974;2023-09-19T16:03:44;100526.44;;;20.29;58.58
31062;BME280;17724;53.546;9.974;2023-09-19T16:07:45;100531.88;;;20.25;59.68
31062;BME280;17724;53.546;9.974;2023-09-19T16:11:46;100536.97;;;20.23;59.16
31062;BME280;17724;53.546;9.974;2023-09-19T16:15:46;100532.88;;;20.21;61.07
31062;BME280;17724;53.546;9.974;2023-09-19T16:19:47;100535.97;;;20.28;60.01
31062;BME280;17724;53.546;9.974;2023-09-19T16:23:48;100547.16;;;20.10;60.24
31062;BME280;17724;53.546;9.974;2023-09-19T16:27:54;100524.31;;;20.17;60.36
31062;BME280;17724;53.546;9.974;2023-09-19T16:31:54;100529.41;;;20.24;60.23
31062;BME280;17724;53.546;9.974;2023-09-19T16:35:55;100532.38;;;20.10;60.12
31062;BME280;17724;53.546;9.974;2023-09-19T16:39:56;100533.69;;;20.12;60.22
31062;BME280;17724;53.546;9.974;2023-09-19T16:43:56;100532.03;;;20.20;60.80
31062;BME280;17724;53.546;9.974;2023-09-19T16:47:58;100518.84;;;20.47;61.55
31062;BME280;17724;53.546;9.974;2023-09-19T16:51:58;100550.41;;;20.30;60.10
31062;BME280;17724;53.546;9.974;2023-09-19T16:56:03;100539.41;;;20.33;60.74
31062;BME280;17724;53.546;9.974;2023-09-19T17:00:05;100536.63;;;20.25;60.05
31062;BME280;17724;53.546;9.974;2023-09-19T17:04:05;100537.78;;;20.24;60.18
31062;BME280;17724;53.546;9.974;2023-09-19T17:08:09;100541.25;;;20.21;60.75
31062;BME280;17724;53.546;9.974;2023-09-19T17:12:09;100547.28;;;20.23;61.02
31062;BME280;17724;53.546;9.974;2023-09-19T17:16:15;100531.22;;;20.28;60.88
31062;BME280;17724;53.546;9.974;2023-09-19T17:20:20;100540.59;;;20.24;60.70
31062;BME280;17724;53.546;9.974;2023-09-19T17:24:20;100534.19;;;20.23;60.83
31062;BME280;17724;53.546;9.974;2023-09-19T17:28:22;100547.47;;;20.35;60.76
31062;BME280;17724;53.546;9.974;2023-09-19T17:32:22;100548.44;;;20.48;59.78
31062;BME280;17724;53.546;9.974;2023-09-19T17:36:25;100542.72;;;20.35;61.45
31062;BME280;17724;53.546;9.974;2023-09-19T17:40:26;100553.53;;;20.37;60.03
31062;BME280;17724;53.546;9.974;2023-09-19T17:44:29;100548.78;;;20.37;60.60
31062;BME280;17724;53.546;9.974;2023-09-19T17:48:35;100544.69;;;20.35;60.51
31062;BME280;17724;53.546;9.974;2023-09-19T17:52:35;100560.47;;;20.31;61.24
31062;BME280;17724;53.546;9.974;2023-09-19T17:56:36;100552.75;;;20.28;60.04
31062;BME280;17724;53.546;9.974;2023-09-19T18:00:36;100550.59;;;20.33;60.44
31062;BME280;17724;53.546;9.974;2023-09-19T18:04:37;100547.16;;;20.28;59.36
31062;BME280;17724;53.546;9.974;2023-09-19T18:08:38;100564.88;;;20.32;59.66
31062;BME280;17724;53.546;9.974;2023-09-19T18:12:40;100543.53;;;20.18;60.45
31062;BME280;17724;53.546;9.974;2023-09-19T18:16:43;100552.75;;;20.19;59.78
31062;BME280;17724;53.546;9.974;2023-09-19T18:20:44;100561.44;;;20.35;60.01
31062;BME280;17724;53.546;9.974;2023-09-19T18:24:46;100558.66;;;20.09;59.78
31062;BME280;17724;53.546;9.974;2023-09-19T18:28:46;100555.19;;;20.29;60.12
31062;BME280;17724;53.546;9.974;2023-09-19T18:32:47;100552.09;;;20.31;59.74
31062;BME280;17724;53.546;9.974;2023-09-19T18:36:50;100559.16;;;20.20;59.96
31062;BME280;17724;53.546;9.974;2023-09-19T18:40:50;100562.75;;;20.29;60.14
31062;BME280;17724;53.546;9.974;2023-09-19T18:44:51;100568.97;;;20.34;60.09
31062;BME280;17724;53.546;9.974;2023-09-19T18:48:52;100560.44;;;20.22;59.86
31062;BME280;17724;53.546;9.974;2023-09-19T18:52:52;100568.00;;;20.39;61.47
31062;BME280;17724;53.546;9.974;2023-09-19T18:56:53;100575.91;;;20.20;60.29
31062;BME280;17724;53.546;9.974;2023-09-19T19:01:03;100563.41;;;20.17;60.84
31062;BME280;17724;53.546;9.974;2023-09-19T19:05:05;100563.41;;;20.17;61.33
31062;BME280;17724;53.546;9.974;2023-09-19T19:09:05;100555.19;;;20.21;61.52
31062;BME280;17724;53.546;9.974;2023-09-19T19:13:07;100557.81;;;20.43;61.84
31062;BME280;17724;53.546;9.974;2023-09-19T19:17:11;100560.28;;;20.18;62.09
31062;BME280;17724;53.546;9.974;2023-09-19T19:21:15;100561.91;;;20.02;62.25
31062;BME280;17724;53.546;9.974;2023-09-19T19:25:16;100573.75;;;20.16;62.54
31062;BME280;17724;53.546;9.974;2023-09-19T19:29:18;100563.91;;;20.28;63.07
31062;BME280;17724;53.546;9.974;2023-09-19T19:33:18;100568.66;;;20.10;62.96
31062;BME280;17724;53.546;9.974;2023-09-19T19:37:24;100572.78;;;20.12;64.06
31062;BME280;17724;53.546;9.974;2023-09-19T19:41:25;100575.56;;;20.12;63.30
31062;BME280;17724;53.546;9.974;2023-09-19T19:45:25;100567.53;;;20.20;64.72
31062;BME280;17724;53.546;9.974;2023-09-19T19:49:26;100579.19;;;20.13;64.27
31062;BME280;17724;53.546;9.974;2023-09-19T19:53:26;100569.81;;;20.26;65.74
31062;BME280;17724;53.546;9.974;2023-09-19T19:57:27;100564.88;;;20.06;65.01
31062;BME280;17724;53.546;9.974;2023-09-19T20:01:27;100576.03;;;20.14;65.17
31062;BME280;17724;53.546;9.974;2023-09-19T20:05:28;100575.22;;;20.23;64.17
31062;BME280;17724;53.546;9.974;2023-09-19T20:09:28;100573.75;;;20.08;65.86
31062;BME280;17724;53.546;9.974;2023-09-19T20:13:29;100577.50;;;19.94;65.93
31062;BME280;17724;53.546;9.974;2023-09-19T20:17:31;100576.38;;;20.22;66.56
31062;BME280;17724;53.546;9.974;2023-09-19T20:21:38;100580.63;;;20.10;65.32
31062;BME280;17724;53.546;9.974;2023-09-19T20:25:40;100580.50;;;20.15;66.72
31062;BME280;17724;53.546;9.974;2023-09-19T20:29:40;100585.41;;;20.10;65.65
31062;BME280;17724;53.546;9.974;2023-09-19T20:33:42;100575.22;;;20.05;67.06
31062;BME280;17724;53.546;9.974;2023-09-19T20:37:42;100577.84;;;20.02;67.67
31062;BME280;17724;53.546;9.974;2023-09-19T20:41:44;100577.84;;;20.02;68.85
31062;BME280;17724;53.546;9.974;2023-09-19T20:45:45;100584.59;;;20.01;69.43
31062;BME280;17724;53.546;9.974;2023-09-19T20:49:46;100580.97;;;19.83;69.24
31062;BME280;17724;53.546;9.974;2023-09-19T20:53:47;100588.19;;;20.01;70.08
31062;BME280;17724;53.546;9.974;2023-09-19T20:57:49;100579.66;;;19.80;71.43
31062;BME280;17724;53.546;9.974;2023-09-19T21:01:53;100581.91;;;19.69;71.36
31062;BME280;17724;53.546;9.974;2023-09-19T21:06:20;100587.00;;;19.67;71.96
31062;BME280;17724;53.546;9.974;2023-09-19T21:10:20;100591.38;;;19.60;71.25
31062;BME280;17724;53.546;9.974;2023-09-19T21:14:21;100579.81;;;19.75;70.98
31062;BME280;17724;53.546;9.974;2023-09-19T21:18:21;100580.53;;;19.58;72.06
31062;BME280;17724;53.546;9.974;2023-09-19T21:22:22;100582.22;;;19.59;72.40
31062;BME280;17724;53.546;9.974;2023-09-19T21:26:22;100577.31;;;19.74;71.07
31062;BME280;17724;53.546;9.974;2023-09-19T21:30:23;100582.72;;;19.61;70.78
31062;BME280;17724;53.546;9.974;2023-09-19T21:34:23;100583.06;;;19.68;70.78
31062;BME280;17724;53.546;9.974;2023-09-19T21:38:25;100583.03;;;19.60;72.64